createdAt,value
2019-01-14T00:02:02.089Z,0.30
2019-01-14T00:04:32.315Z,0.37
2019-01-14T00:07:02.585Z,0.20
2019-01-14T00:09:32.773Z,0.37
2019-01-14T00:12:03.263Z,0.40
2019-01-14T00:14:34.551Z,0.23
2019-01-14T00:17:05.083Z,0.20
2019-01-14T00:19:35.359Z,0.30
2019-01-14T00:22:07.189Z,0.20
2019-01-14T00:24:37.430Z,0.30
2019-01-14T00:27:07.665Z,0.20
2019-01-14T00:29:37.918Z,0.30
2019-01-14T00:32:08.173Z,0.20
2019-01-14T00:34:38.398Z,0.20
2019-01-14T00:37:08.625Z,0.20
2019-01-14T00:39:38.815Z,0.30
2019-01-14T00:42:09.110Z,0.30
2019-01-14T00:44:39.374Z,0.40
2019-01-14T00:47:09.695Z,0.23
2019-01-14T00:49:40.332Z,0.30
2019-01-14T00:52:10.554Z,0.30
2019-01-14T00:54:40.798Z,0.30
2019-01-14T00:57:11.129Z,0.30
2019-01-14T00:59:41.448Z,0.30
2019-01-14T01:02:11.842Z,0.20
2019-01-14T01:04:42.076Z,0.40
2019-01-14T01:07:12.408Z,0.30
2019-01-14T01:09:42.645Z,0.40
2019-01-14T01:12:13.223Z,0.40
2019-01-14T01:14:45.453Z,0.40
2019-01-14T01:17:16.003Z,0.67
2019-01-14T01:19:46.260Z,0.37
2019-01-14T01:22:16.487Z,0.30
2019-01-14T01:24:46.737Z,0.40
2019-01-14T01:27:17.057Z,0.40
2019-01-14T01:29:47.267Z,0.33
2019-01-14T01:32:18.030Z,0.40
2019-01-14T01:34:48.863Z,0.47
2019-01-14T01:37:19.136Z,0.57
2019-01-14T01:39:49.456Z,0.40
2019-01-14T01:42:19.679Z,0.50
2019-01-14T01:44:49.995Z,0.50
2019-01-14T01:47:20.220Z,0.40
2019-01-14T01:49:50.606Z,0.30
2019-01-14T01:52:20.763Z,0.50
2019-01-14T01:54:51.108Z,0.50
2019-01-14T01:57:21.330Z,0.40
2019-01-14T01:59:52.221Z,0.40
2019-01-14T02:02:22.486Z,0.50
2019-01-14T02:04:52.775Z,0.30
2019-01-14T02:07:23.298Z,0.40
2019-01-14T02:09:54.100Z,0.33
2019-01-14T02:12:24.288Z,0.40
2019-01-14T02:14:54.571Z,0.70
2019-01-14T02:17:25.224Z,0.43
2019-01-14T02:19:55.723Z,0.60
2019-01-14T02:22:25.889Z,0.27
2019-01-14T02:24:56.174Z,0.40
2019-01-14T02:27:26.495Z,0.60
2019-01-14T02:29:56.723Z,0.23
2019-01-14T02:32:26.978Z,0.40
2019-01-14T02:34:57.267Z,0.40
2019-01-14T02:37:27.597Z,0.40
2019-01-14T02:39:57.810Z,0.40
2019-01-14T02:42:28.090Z,0.43
2019-01-14T02:44:58.310Z,0.30
2019-01-14T02:47:28.574Z,0.60
2019-01-14T02:49:58.816Z,0.37
2019-01-14T02:52:29.105Z,0.40
2019-01-14T02:54:59.767Z,0.40
2019-01-14T02:57:30.136Z,0.30
2019-01-14T03:00:00.481Z,0.40
2019-01-14T03:02:30.779Z,0.30
2019-01-14T03:05:01.079Z,0.30
2019-01-14T03:07:31.457Z,0.30
2019-01-14T03:10:01.720Z,0.40
2019-01-14T03:12:32.094Z,0.37
2019-01-14T03:15:02.381Z,0.20
2019-01-14T03:17:32.629Z,0.40
2019-01-14T03:20:03.191Z,0.30
2019-01-14T03:22:33.474Z,0.33
2019-01-14T03:25:04.874Z,0.37
2019-01-14T03:27:35.531Z,0.33
2019-01-14T03:30:08.132Z,0.40
2019-01-14T03:32:38.401Z,0.50
2019-01-14T03:35:09.848Z,0.30
2019-01-14T03:37:40.059Z,0.40
2019-01-14T03:40:13.003Z,0.60
2019-01-14T03:42:43.400Z,0.80
2019-01-14T03:45:15.706Z,0.78
2019-01-14T03:47:45.935Z,0.40
2019-01-14T03:50:19.046Z,0.40
2019-01-14T03:52:49.512Z,0.43
2019-01-14T03:55:19.853Z,0.50
2019-01-14T03:57:52.758Z,0.50
2019-01-14T04:00:23.052Z,0.40
2019-01-14T04:02:53.930Z,0.50
2019-01-14T04:05:24.217Z,0.60
2019-01-14T04:07:54.798Z,0.60
2019-01-14T04:10:25.080Z,0.50
2019-01-14T04:12:55.350Z,0.60
2019-01-14T04:15:25.618Z,0.45
2019-01-14T04:17:55.906Z,0.30
2019-01-14T04:20:26.181Z,0.37
2019-01-14T04:22:56.802Z,0.40
2019-01-14T04:25:27.018Z,0.40
2019-01-14T04:27:58.166Z,0.50
2019-01-14T04:30:28.413Z,0.40
2019-01-14T04:32:58.675Z,0.35
2019-01-14T04:35:28.928Z,0.30
2019-01-14T04:37:59.271Z,0.50
2019-01-14T04:40:29.780Z,0.50
2019-01-14T04:43:00.069Z,0.40
2019-01-14T04:45:30.339Z,0.40
2019-01-14T04:48:00.595Z,0.30
2019-01-14T04:50:31.306Z,0.30
2019-01-14T04:53:01.611Z,0.53
2019-01-14T04:55:31.938Z,0.40
2019-01-14T04:58:02.682Z,0.20
2019-01-14T05:00:32.896Z,0.50
2019-01-14T05:03:03.595Z,0.40
2019-01-14T05:05:33.904Z,0.47
2019-01-14T05:08:04.448Z,0.33
2019-01-14T05:10:34.711Z,0.53
2019-01-14T05:13:05.000Z,0.50
2019-01-14T05:15:36.945Z,0.60
2019-01-14T05:18:07.201Z,0.50
2019-01-14T05:20:37.414Z,0.60
2019-01-14T05:23:07.652Z,0.50
2019-01-14T05:25:37.910Z,0.60
2019-01-14T05:28:08.117Z,0.57
2019-01-14T05:30:38.318Z,0.50
2019-01-14T05:33:08.538Z,0.50
2019-01-14T05:35:38.853Z,0.50
2019-01-14T05:38:09.166Z,0.87
2019-01-14T05:40:39.421Z,0.70
2019-01-14T05:43:09.714Z,0.67
2019-01-14T05:45:40.015Z,0.60
2019-01-14T05:48:10.260Z,0.60
2019-01-14T05:50:40.491Z,0.70
2019-01-14T05:53:10.715Z,0.90
2019-01-14T05:55:40.948Z,1.30
2019-01-14T05:58:11.246Z,0.87
2019-01-14T06:00:48.871Z,0.80
2019-01-14T06:03:19.209Z,0.80
2019-01-14T06:05:49.748Z,0.60
2019-01-14T06:08:20.574Z,0.70
2019-01-14T06:10:50.808Z,0.73
2019-01-14T06:13:21.042Z,0.80
2019-01-14T06:15:51.340Z,1.10
2019-01-14T06:18:21.639Z,0.90
2019-01-14T06:20:51.944Z,0.90
2019-01-14T06:23:22.208Z,1.00
2019-01-14T06:25:52.437Z,1.00
2019-01-14T06:28:22.675Z,0.80
2019-01-14T06:30:52.971Z,1.10
2019-01-14T06:33:23.193Z,0.80
2019-01-14T06:35:53.854Z,0.90
2019-01-14T06:38:24.160Z,1.00
2019-01-14T06:40:54.409Z,1.20
2019-01-14T06:43:24.708Z,1.00
2019-01-14T06:45:54.935Z,1.00
2019-01-14T06:48:25.600Z,0.97
2019-01-14T06:50:57.818Z,1.00
2019-01-14T06:53:28.129Z,1.13
2019-01-14T06:55:58.381Z,2.10
2019-01-14T06:58:29.002Z,1.80
2019-01-14T07:00:59.221Z,1.30
2019-01-14T07:03:29.551Z,1.20
2019-01-14T07:06:00.193Z,1.30
2019-01-14T07:08:30.590Z,2.00
2019-01-14T07:11:01.007Z,1.40
2019-01-14T07:13:31.607Z,1.40
2019-01-14T07:16:01.882Z,1.30
2019-01-14T07:18:32.228Z,1.63
2019-01-14T07:21:02.438Z,1.33
2019-01-14T07:23:32.814Z,1.15
2019-01-14T07:26:03.094Z,1.10
2019-01-14T07:28:33.455Z,1.40
2019-01-14T07:31:03.741Z,1.52
2019-01-14T07:33:34.061Z,1.30
2019-01-14T07:36:04.635Z,1.77
2019-01-14T07:38:34.918Z,1.17
2019-01-14T07:41:05.652Z,1.33
2019-01-14T07:43:36.313Z,1.30
2019-01-14T07:46:06.663Z,1.23
2019-01-14T07:48:36.896Z,0.90
2019-01-14T07:51:07.486Z,1.10
2019-01-14T07:53:37.739Z,1.22
2019-01-14T07:56:08.095Z,1.20
2019-01-14T07:58:38.367Z,1.00
2019-01-14T08:01:08.673Z,1.00
2019-01-14T08:03:40.184Z,1.40
2019-01-14T08:06:10.449Z,1.03
2019-01-14T08:08:40.832Z,1.20
2019-01-14T08:11:11.188Z,1.40
2019-01-14T08:13:43.992Z,1.47
2019-01-14T08:16:14.429Z,1.10
2019-01-14T08:18:44.793Z,1.57
2019-01-14T08:21:15.106Z,1.20
2019-01-14T08:23:45.442Z,1.27
2019-01-14T08:26:15.942Z,1.47
2019-01-14T08:28:46.491Z,1.67
2019-01-14T08:31:16.723Z,0.97
2019-01-14T08:33:47.037Z,1.30
2019-01-14T08:36:17.432Z,1.60
2019-01-14T08:38:47.727Z,1.53
2019-01-14T08:41:18.485Z,1.80
2019-01-14T08:43:52.504Z,1.70
2019-01-14T08:46:23.126Z,1.90
2019-01-14T08:48:54.320Z,1.77
2019-01-14T08:51:25.688Z,1.93
2019-01-14T08:53:56.958Z,1.60
2019-01-14T08:56:27.267Z,1.40
2019-01-14T08:58:58.846Z,1.60
2019-01-14T09:01:30.135Z,1.20
2019-01-14T09:04:02.679Z,1.30
2019-01-14T09:06:32.912Z,1.40
2019-01-14T09:09:10.367Z,1.20
2019-01-14T09:11:40.611Z,1.40
2019-01-14T09:14:16.534Z,1.33
2019-01-14T09:16:47.802Z,1.20
2019-01-14T09:19:18.999Z,1.30
2019-01-14T09:21:50.380Z,1.50
2019-01-14T09:24:27.636Z,1.47
2019-01-14T09:26:57.868Z,1.10
2019-01-14T09:29:28.090Z,1.80
2019-01-14T09:31:59.403Z,1.40
2019-01-14T09:34:31.057Z,1.33
2019-01-14T09:37:01.469Z,1.30
2019-01-14T09:39:31.846Z,1.40
2019-01-14T09:42:02.154Z,1.50
2019-01-14T09:44:33.649Z,1.33
2019-01-14T09:47:04.213Z,1.47
2019-01-14T09:49:34.493Z,1.90
2019-01-14T09:52:05.163Z,1.50
2019-01-14T09:54:35.457Z,1.97
2019-01-14T09:57:05.711Z,1.77
2019-01-14T09:59:36.012Z,1.85
2019-01-14T10:02:06.267Z,1.73
2019-01-14T10:04:36.560Z,1.67
2019-01-14T10:07:06.967Z,1.47
2019-01-14T10:09:37.204Z,1.93
2019-01-14T10:12:07.486Z,1.60
2019-01-14T10:14:37.773Z,1.70
2019-01-14T10:17:08.187Z,1.53
2019-01-14T10:19:38.916Z,1.90
2019-01-14T10:22:09.190Z,2.13
2019-01-14T10:24:39.491Z,1.80
2019-01-14T10:27:09.717Z,1.93
2019-01-14T10:29:40.001Z,1.73
2019-01-14T10:32:10.444Z,1.60
2019-01-14T10:34:40.772Z,1.83
2019-01-14T10:37:11.045Z,2.30
2019-01-14T10:39:41.297Z,1.70
2019-01-14T10:42:11.604Z,2.00
2019-01-14T10:44:42.184Z,1.70
2019-01-14T10:47:12.593Z,1.47
2019-01-14T10:49:42.907Z,1.30
2019-01-14T10:52:13.248Z,1.50
2019-01-14T10:54:43.478Z,1.70
2019-01-14T10:57:13.844Z,1.57
2019-01-14T10:59:44.240Z,1.07
2019-01-14T11:02:14.620Z,1.00
2019-01-14T11:04:44.919Z,1.10
2019-01-14T11:07:15.404Z,1.50
2019-01-14T11:09:45.735Z,1.77
2019-01-14T11:12:17.179Z,1.30
2019-01-14T11:14:47.565Z,1.17
2019-01-14T11:17:17.823Z,1.43
2019-01-14T11:19:48.059Z,1.37
2019-01-14T11:22:18.400Z,1.30
2019-01-14T11:24:51.919Z,1.37
2019-01-14T11:27:22.712Z,1.40
2019-01-14T11:29:54.126Z,1.80
2019-01-14T11:32:25.161Z,1.33
2019-01-14T11:34:55.350Z,1.57
2019-01-14T11:37:25.618Z,1.30
2019-01-14T11:39:55.832Z,1.60
2019-01-14T11:42:27.151Z,1.73
2019-01-14T11:44:57.555Z,1.23
2019-01-14T11:47:27.988Z,1.70
2019-01-14T11:49:58.323Z,1.40
2019-01-14T11:52:28.650Z,1.30
2019-01-14T11:54:58.960Z,1.90
2019-01-14T11:57:29.287Z,1.70
2019-01-14T11:59:59.591Z,1.73
2019-01-14T12:02:29.874Z,1.90
2019-01-14T12:05:00.159Z,1.60
2019-01-14T12:07:30.528Z,1.30
2019-01-14T12:10:00.824Z,1.37
2019-01-14T12:12:32.136Z,1.50
2019-01-14T12:15:02.523Z,1.30
2019-01-14T12:17:32.812Z,1.60
2019-01-14T12:20:03.137Z,1.70
2019-01-14T12:22:33.503Z,1.60
2019-01-14T12:25:05.897Z,1.23
2019-01-14T12:27:36.160Z,1.17
2019-01-14T12:30:12.175Z,1.10
2019-01-14T12:32:44.502Z,1.17
2019-01-14T12:35:14.775Z,1.27
2019-01-14T12:37:44.992Z,1.20
2019-01-14T12:40:16.875Z,1.70
2019-01-14T12:42:47.205Z,1.27
2019-01-14T12:45:17.730Z,1.33
2019-01-14T12:47:48.084Z,1.67
2019-01-14T12:50:18.425Z,1.40
2019-01-14T12:52:48.950Z,1.20
2019-01-14T12:55:20.218Z,1.30
2019-01-14T12:57:51.286Z,1.30
2019-01-14T13:00:23.648Z,1.30
2019-01-14T13:02:58.301Z,1.63
2019-01-14T13:05:27.338Z,1.33
2019-01-14T13:07:57.652Z,1.70
2019-01-14T13:10:28.031Z,1.47
2019-01-14T13:12:58.274Z,0.90
2019-01-14T13:15:29.339Z,1.53
2019-01-14T13:18:05.273Z,1.30
2019-01-14T13:20:32.054Z,1.00
2019-01-14T13:23:02.381Z,1.23
2019-01-14T13:25:32.607Z,0.77
2019-01-14T13:28:02.904Z,0.87
2019-01-14T13:30:33.164Z,0.90
2019-01-14T13:33:03.611Z,0.80
2019-01-14T13:35:34.007Z,0.83
2019-01-14T13:38:04.628Z,0.77
2019-01-14T13:40:35.095Z,0.80
2019-01-14T13:43:05.461Z,1.00
2019-01-14T13:45:36.882Z,0.87
2019-01-14T13:48:07.350Z,0.77
2019-01-14T13:50:37.630Z,0.90
2019-01-14T13:53:07.916Z,1.00
2019-01-14T13:55:38.416Z,1.00
2019-01-14T13:58:08.888Z,1.00
2019-01-14T14:00:39.081Z,0.90
2019-01-14T14:03:09.380Z,0.63
2019-01-14T14:05:39.719Z,0.80
2019-01-14T14:08:09.924Z,0.93
2019-01-14T14:10:41.590Z,0.90
2019-01-14T14:13:12.854Z,1.00
2019-01-14T14:15:43.155Z,1.00
2019-01-14T14:18:13.391Z,1.07
2019-01-14T14:20:43.672Z,1.07
2019-01-14T14:23:14.076Z,1.43
2019-01-14T14:25:44.410Z,1.20
2019-01-14T14:28:14.712Z,1.50
2019-01-14T14:30:45.093Z,1.20
2019-01-14T14:33:15.285Z,1.03
2019-01-14T14:35:46.649Z,1.23
2019-01-14T14:38:17.146Z,1.10
2019-01-14T14:40:47.468Z,1.27
2019-01-14T14:43:17.669Z,1.37
2019-01-14T14:45:47.951Z,1.47
2019-01-14T14:48:18.245Z,1.13
2019-01-14T14:50:48.554Z,1.27
2019-01-14T14:53:18.861Z,1.30
2019-01-14T14:55:49.185Z,1.30
2019-01-14T14:58:19.369Z,3.30
2019-01-14T15:00:50.763Z,4.80
2019-01-14T15:03:21.014Z,1.70
2019-01-14T15:05:51.562Z,1.10
2019-01-14T15:08:21.840Z,0.80
2019-01-14T15:10:52.190Z,2.03
2019-01-14T15:13:22.489Z,1.20
2019-01-14T15:15:53.238Z,1.10
2019-01-14T15:18:25.531Z,1.40
2019-01-14T15:20:55.847Z,1.00
2019-01-14T15:23:26.109Z,1.00
2019-01-14T15:25:56.348Z,1.20
2019-01-14T15:28:27.749Z,1.20
2019-01-14T15:30:58.052Z,0.90
2019-01-14T15:33:28.323Z,1.30
2019-01-14T15:35:58.640Z,1.20
2019-01-14T15:38:29.852Z,1.10
2019-01-14T15:41:00.156Z,1.00
2019-01-14T15:43:30.400Z,1.00
2019-01-14T15:46:00.695Z,1.00
2019-01-14T15:48:31.082Z,1.17
2019-01-14T15:51:01.377Z,1.40
2019-01-14T15:53:32.885Z,1.20
2019-01-14T15:56:03.226Z,1.20
2019-01-14T15:58:35.509Z,1.30
2019-01-14T16:01:05.805Z,1.30
2019-01-14T16:03:36.108Z,1.23
2019-01-14T16:06:06.411Z,1.20
2019-01-14T16:08:36.646Z,1.13
2019-01-14T16:11:07.058Z,1.40
2019-01-14T16:13:37.305Z,1.50
2019-01-14T16:16:07.647Z,1.33
2019-01-14T16:18:37.898Z,1.20
2019-01-14T16:21:08.214Z,1.07
2019-01-14T16:23:40.786Z,1.20
2019-01-14T16:26:11.215Z,1.00
2019-01-14T16:28:41.407Z,1.07
2019-01-14T16:31:11.743Z,1.00
2019-01-14T16:33:42.048Z,1.00
2019-01-14T16:36:12.416Z,1.03
2019-01-14T16:38:42.732Z,1.20
2019-01-14T16:41:13.964Z,1.00
2019-01-14T16:43:45.434Z,1.00
2019-01-14T16:46:18.651Z,1.13
2019-01-14T16:48:50.177Z,0.97
2019-01-14T16:51:20.569Z,1.10
2019-01-14T16:53:51.020Z,1.00
2019-01-14T16:56:21.363Z,1.50
2019-01-14T16:58:51.846Z,1.20
2019-01-14T17:01:22.380Z,1.23
2019-01-14T17:03:55.688Z,1.00
2019-01-14T17:06:26.109Z,1.10
2019-01-14T17:08:57.609Z,1.63
2019-01-14T17:11:29.048Z,1.37
2019-01-14T17:14:00.477Z,1.40
2019-01-14T17:16:31.165Z,1.80
2019-01-14T17:19:02.051Z,1.70
2019-01-14T17:21:32.386Z,1.47
2019-01-14T17:24:02.850Z,1.53
2019-01-14T17:26:33.075Z,1.40
2019-01-14T17:29:03.675Z,1.60
2019-01-14T17:31:34.028Z,2.00
2019-01-14T17:34:05.787Z,1.57
2019-01-14T17:36:35.974Z,2.10
2019-01-14T17:39:09.022Z,1.97
2019-01-14T17:41:40.138Z,2.12
2019-01-14T17:44:11.472Z,1.70
2019-01-14T17:46:41.660Z,1.67
2019-01-14T17:49:11.938Z,1.90
2019-01-14T17:51:42.450Z,1.60
2019-01-14T17:54:12.961Z,1.77
2019-01-14T17:56:43.267Z,1.80
2019-01-14T17:59:13.548Z,2.30
2019-01-14T18:01:43.719Z,1.57
2019-01-14T18:04:14.022Z,1.53
2019-01-14T18:06:44.311Z,1.60
2019-01-14T18:09:14.672Z,2.70
2019-01-14T18:11:46.683Z,2.20
2019-01-14T18:14:17.091Z,2.00
2019-01-14T18:16:47.415Z,1.37
2019-01-14T18:19:17.760Z,1.40
2019-01-14T18:21:48.101Z,1.63
2019-01-14T18:24:18.470Z,1.70
2019-01-14T18:26:48.846Z,1.37
2019-01-14T18:29:19.144Z,1.62
2019-01-14T18:31:49.466Z,1.80
2019-01-14T18:34:20.709Z,1.57
2019-01-14T18:36:51.040Z,1.70
2019-01-14T18:39:22.380Z,1.80
2019-01-14T18:41:55.828Z,1.40
2019-01-14T18:44:27.234Z,1.87
2019-01-14T18:46:57.540Z,1.80
2019-01-14T18:49:27.884Z,1.67
2019-01-14T18:51:58.082Z,1.37
2019-01-14T18:54:28.434Z,1.97
2019-01-14T18:56:58.834Z,1.50
2019-01-14T18:59:29.127Z,1.80
2019-01-14T19:01:59.678Z,1.47
2019-01-14T19:04:31.035Z,1.53
2019-01-14T19:07:02.715Z,1.60
2019-01-14T19:09:32.946Z,1.67
2019-01-14T19:12:03.214Z,1.53
2019-01-14T19:14:33.549Z,1.73
2019-01-14T19:17:03.849Z,1.60
2019-01-14T19:19:34.167Z,1.30
2019-01-14T19:22:06.612Z,1.43
2019-01-14T19:24:36.935Z,1.93
2019-01-14T19:27:16.437Z,1.47
2019-01-14T19:29:43.279Z,1.63
2019-01-14T19:32:14.478Z,1.70
2019-01-14T19:34:44.721Z,2.02
2019-01-14T19:37:15.003Z,1.77
2019-01-14T19:39:45.239Z,2.00
2019-01-14T19:42:21.439Z,1.47
2019-01-14T19:44:52.751Z,4.70
2019-01-14T19:47:28.912Z,3.10
2019-01-14T19:49:59.290Z,2.40
2019-01-14T19:52:29.501Z,2.20
2019-01-14T19:54:59.775Z,2.43
2019-01-14T19:57:30.408Z,2.07
2019-01-14T20:00:01.060Z,2.03
2019-01-14T20:02:31.231Z,1.93
2019-01-14T20:05:03.173Z,2.10
2019-01-14T20:07:35.084Z,2.27
2019-01-14T20:10:07.751Z,2.10
2019-01-14T20:12:38.048Z,1.90
2019-01-14T20:15:10.191Z,1.87
2019-01-14T20:17:40.891Z,2.17
2019-01-14T20:20:11.842Z,2.30
2019-01-14T20:22:42.125Z,2.13
2019-01-14T20:25:14.243Z,2.73
2019-01-14T20:27:44.521Z,2.57
2019-01-14T20:30:19.922Z,2.33
2019-01-14T20:32:50.385Z,2.63
2019-01-14T20:35:20.748Z,2.20
2019-01-14T20:37:50.928Z,2.13
2019-01-14T20:40:21.191Z,2.17
2019-01-14T20:42:51.532Z,2.07
2019-01-14T20:45:21.758Z,2.33
2019-01-14T20:47:52.025Z,2.33
2019-01-14T20:50:22.854Z,2.37
2019-01-14T20:52:53.108Z,2.20
2019-01-14T20:55:23.446Z,2.37
2019-01-14T20:57:53.721Z,2.40
2019-01-14T21:00:26.101Z,2.20
2019-01-14T21:02:57.294Z,1.93
2019-01-14T21:05:28.142Z,2.87
2019-01-14T21:07:58.425Z,2.60
2019-01-14T21:10:28.712Z,2.67
2019-01-14T21:12:58.956Z,2.30
2019-01-14T21:15:29.262Z,2.17
2019-01-14T21:17:59.514Z,2.23
2019-01-14T21:20:29.776Z,2.67
2019-01-14T21:23:00.044Z,2.27
2019-01-14T21:25:30.303Z,2.20
2019-01-14T21:28:00.593Z,2.33
2019-01-14T21:30:30.930Z,2.27
2019-01-14T21:33:01.813Z,2.50
2019-01-14T21:35:32.111Z,2.50
2019-01-14T21:38:02.398Z,2.17
2019-01-14T21:40:32.891Z,2.87
2019-01-14T21:43:03.314Z,2.80
2019-01-14T21:45:33.637Z,3.90
2019-01-14T21:48:04.007Z,3.47
2019-01-14T21:50:34.314Z,3.10
2019-01-14T21:53:04.641Z,2.70
2019-01-14T21:55:34.959Z,2.17
2019-01-14T21:58:05.323Z,2.80
2019-01-14T22:00:35.665Z,2.90
2019-01-14T22:03:05.986Z,2.67
2019-01-14T22:05:36.280Z,2.40
2019-01-14T22:08:06.508Z,5.63
2019-01-14T22:10:36.969Z,4.63
2019-01-14T22:13:07.343Z,3.90
2019-01-14T22:15:43.452Z,3.37
2019-01-14T22:18:22.312Z,3.63
2019-01-14T22:20:53.557Z,3.73
2019-01-14T22:23:23.831Z,3.13
2019-01-14T22:25:54.089Z,2.90
2019-01-14T22:28:24.754Z,3.07
2019-01-14T22:30:56.061Z,3.83
2019-01-14T22:33:27.577Z,3.00
2019-01-14T22:35:57.767Z,3.53
2019-01-14T22:38:28.021Z,3.40
2019-01-14T22:40:58.276Z,2.90
2019-01-14T22:43:30.153Z,3.70
2019-01-14T22:46:00.447Z,3.23
2019-01-14T22:48:30.769Z,3.40
2019-01-14T22:51:01.319Z,3.43
2019-01-14T22:53:32.260Z,3.53
2019-01-14T22:56:02.635Z,4.17
2019-01-14T22:58:32.906Z,4.00
2019-01-14T23:01:37.585Z,3.70
2019-01-14T23:04:07.805Z,3.67
2019-01-14T23:06:38.099Z,4.03
2019-01-14T23:09:09.983Z,4.03
2019-01-14T23:11:40.276Z,3.60
2019-01-14T23:14:10.565Z,3.33
2019-01-14T23:16:41.147Z,3.60
2019-01-14T23:19:11.505Z,3.63
2019-01-14T23:21:41.748Z,3.40
2019-01-14T23:24:12.055Z,3.50
2019-01-14T23:26:42.631Z,3.93
2019-01-14T23:29:13.092Z,3.37
2019-01-14T23:31:43.374Z,4.00
2019-01-14T23:34:13.596Z,4.10
2019-01-14T23:36:43.798Z,3.63
2019-01-14T23:39:14.131Z,3.27
2019-01-14T23:41:44.339Z,3.40
2019-01-14T23:44:14.557Z,3.13
2019-01-14T23:46:44.778Z,3.80
2019-01-14T23:49:15.063Z,3.53
2019-01-14T23:51:45.253Z,3.87
2019-01-14T23:54:15.549Z,4.43
2019-01-14T23:56:45.773Z,3.80
2019-01-14T23:59:16.010Z,4.17
